createdAt,value
2018-03-31T00:00:08.875Z,15.30
2018-03-31T00:01:08.881Z,15.20
2018-03-31T00:02:08.898Z,15.00
2018-03-31T00:03:08.909Z,14.80
2018-03-31T00:04:08.922Z,14.70
2018-03-31T00:05:08.936Z,14.50
2018-03-31T00:06:08.951Z,13.70
2018-03-31T00:07:08.963Z,14.20
2018-03-31T00:08:08.985Z,14.30
2018-03-31T00:09:08.991Z,15.00
2018-03-31T00:10:09.015Z,13.90
2018-03-31T00:11:09.018Z,13.90
2018-03-31T00:12:09.040Z,13.70
2018-03-31T00:13:09.047Z,13.90
2018-03-31T00:14:09.074Z,14.00
2018-03-31T00:15:09.095Z,13.70
2018-03-31T00:16:09.170Z,13.50
2018-03-31T00:17:09.102Z,13.70
2018-03-31T00:18:09.116Z,13.30
2018-03-31T00:19:09.132Z,13.10
2018-03-31T00:20:09.144Z,14.00
2018-03-31T00:21:09.157Z,13.90
2018-03-31T00:22:09.175Z,13.60
2018-03-31T00:23:09.183Z,13.80
2018-03-31T00:24:09.200Z,14.40
2018-03-31T00:25:09.216Z,14.70
2018-03-31T00:26:09.228Z,14.60
2018-03-31T00:27:09.250Z,14.80
2018-03-31T00:28:09.257Z,14.40
2018-03-31T00:29:09.272Z,14.10
2018-03-31T00:30:09.282Z,14.00
2018-03-31T00:31:09.297Z,13.50
2018-03-31T00:32:09.310Z,14.20
2018-03-31T00:33:09.326Z,14.80
2018-03-31T00:34:09.342Z,15.50
2018-03-31T00:35:09.352Z,14.10
2018-03-31T00:36:09.369Z,13.20
2018-03-31T00:37:09.385Z,14.40
2018-03-31T00:38:09.396Z,14.50
2018-03-31T00:39:09.413Z,15.10
2018-03-31T00:40:09.421Z,15.20
2018-03-31T00:41:09.441Z,14.70
2018-03-31T00:42:09.450Z,15.00
2018-03-31T00:43:09.469Z,16.10
2018-03-31T00:44:09.476Z,16.00
2018-03-31T00:45:09.494Z,15.20
2018-03-31T00:46:09.505Z,16.50
2018-03-31T00:47:09.521Z,16.30
2018-03-31T00:48:09.547Z,16.00
2018-03-31T00:49:09.550Z,16.30
2018-03-31T00:50:09.562Z,17.00
2018-03-31T00:51:09.575Z,16.50
2018-03-31T00:52:09.588Z,16.70
2018-03-31T00:53:09.601Z,17.20
2018-03-31T00:54:09.614Z,17.40
2018-03-31T00:55:09.628Z,17.80
2018-03-31T00:56:09.644Z,17.70
2018-03-31T00:57:09.657Z,17.70
2018-03-31T00:58:09.671Z,18.10
2018-03-31T00:59:09.694Z,18.10
2018-03-31T01:00:09.699Z,17.20
2018-03-31T01:01:09.716Z,17.40
2018-03-31T01:02:09.737Z,16.80
2018-03-31T01:03:09.742Z,16.20
2018-03-31T01:04:09.762Z,17.90
2018-03-31T01:05:09.766Z,17.10
2018-03-31T01:06:09.781Z,17.90
2018-03-31T01:07:09.793Z,18.30
2018-03-31T01:08:09.806Z,18.10
2018-03-31T01:09:09.823Z,18.50
2018-03-31T01:10:09.836Z,19.50
2018-03-31T01:11:09.853Z,18.50
2018-03-31T01:12:09.862Z,19.00
2018-03-31T01:13:09.878Z,19.20
2018-03-31T01:14:09.891Z,19.60
2018-03-31T01:15:09.904Z,18.40
2018-03-31T01:16:09.917Z,18.50
2018-03-31T01:17:09.931Z,18.20
2018-03-31T01:18:09.960Z,19.40
2018-03-31T01:19:09.958Z,19.70
2018-03-31T01:20:09.972Z,19.20
2018-03-31T01:21:09.987Z,19.90
2018-03-31T01:22:10.000Z,19.10
2018-03-31T01:23:10.013Z,18.80
2018-03-31T01:24:10.027Z,20.20
2018-03-31T01:25:10.047Z,20.10
2018-03-31T01:26:10.057Z,19.70
2018-03-31T01:27:10.066Z,19.60
2018-03-31T01:28:10.081Z,20.20
2018-03-31T01:29:10.106Z,21.50
2018-03-31T01:30:10.112Z,21.40
2018-03-31T01:31:10.120Z,20.80
2018-03-31T01:32:10.134Z,20.70
2018-03-31T01:33:10.151Z,21.80
2018-03-31T01:34:10.163Z,21.40
2018-03-31T01:35:10.174Z,21.60
2018-03-31T01:36:10.186Z,21.50
2018-03-31T01:37:10.202Z,21.70
2018-03-31T01:38:10.216Z,22.00
2018-03-31T01:39:10.229Z,22.50
2018-03-31T01:40:10.239Z,22.70
2018-03-31T01:41:10.258Z,22.00
2018-03-31T01:42:10.267Z,21.70
2018-03-31T01:43:10.282Z,22.10
2018-03-31T01:44:10.300Z,23.20
2018-03-31T01:45:10.310Z,23.90
2018-03-31T01:47:10.334Z,22.30
2018-03-31T01:48:10.348Z,23.10
2018-03-31T01:49:10.357Z,22.40
2018-03-31T01:50:10.375Z,22.50
2018-03-31T01:51:10.380Z,21.40
2018-03-31T01:52:10.396Z,20.90
2018-03-31T01:53:10.410Z,21.10
2018-03-31T01:54:10.421Z,20.50
2018-03-31T01:55:10.435Z,20.80
2018-03-31T01:56:10.449Z,20.60
2018-03-31T01:57:10.469Z,20.10
2018-03-31T01:58:10.477Z,20.30
2018-03-31T01:59:10.489Z,21.00
2018-03-31T02:00:10.503Z,21.70
2018-03-31T02:01:10.516Z,22.00
2018-03-31T02:02:10.529Z,21.60
2018-03-31T02:03:10.542Z,21.60
2018-03-31T02:04:10.557Z,22.00
2018-03-31T02:05:10.570Z,22.00
2018-03-31T02:06:10.585Z,22.90
2018-03-31T02:07:10.597Z,22.60
2018-03-31T02:08:10.609Z,23.00
2018-03-31T02:09:10.623Z,22.70
2018-03-31T02:10:10.636Z,21.60
2018-03-31T02:11:10.655Z,20.90
2018-03-31T02:12:10.663Z,20.50
2018-03-31T02:13:10.676Z,21.80
2018-03-31T02:14:10.694Z,22.10
2018-03-31T02:15:10.703Z,20.70
2018-03-31T02:16:10.718Z,21.40
2018-03-31T02:17:10.730Z,21.10
2018-03-31T02:18:10.745Z,21.40
2018-03-31T02:19:10.756Z,21.60
2018-03-31T02:20:10.771Z,20.20
2018-03-31T02:21:10.784Z,19.80
2018-03-31T02:22:10.800Z,19.10
2018-03-31T02:23:10.813Z,18.70
2018-03-31T02:24:10.825Z,19.80
2018-03-31T02:25:10.837Z,20.10
2018-03-31T02:26:10.850Z,19.00
2018-03-31T02:27:10.863Z,19.40
2018-03-31T02:28:10.881Z,18.40
2018-03-31T02:29:10.892Z,18.80
2018-03-31T02:30:10.905Z,18.00
2018-03-31T02:31:10.921Z,17.80
2018-03-31T02:32:10.931Z,17.80
2018-03-31T02:33:10.944Z,17.60
2018-03-31T02:34:10.961Z,16.00
2018-03-31T02:35:10.969Z,15.80
2018-03-31T02:36:10.993Z,16.10
2018-03-31T02:37:10.998Z,15.80
2018-03-31T02:38:11.010Z,15.40
2018-03-31T02:39:11.026Z,15.60
2018-03-31T02:40:11.037Z,15.30
2018-03-31T02:41:11.054Z,15.80
2018-03-31T02:42:11.069Z,15.20
2018-03-31T02:43:11.082Z,14.70
2018-03-31T02:44:11.090Z,14.70
2018-03-31T02:45:11.105Z,15.20
2018-03-31T02:46:11.118Z,14.60
2018-03-31T02:47:11.130Z,15.20
2018-03-31T02:48:11.148Z,14.90
2018-03-31T02:49:11.157Z,15.10
2018-03-31T02:50:11.174Z,15.50
2018-03-31T02:51:11.194Z,14.90
2018-03-31T02:52:11.199Z,14.90
2018-03-31T02:53:11.215Z,14.50
2018-03-31T02:54:11.231Z,14.10
2018-03-31T02:55:11.252Z,14.30
2018-03-31T02:56:11.249Z,14.80
2018-03-31T02:57:11.264Z,14.00
2018-03-31T02:58:11.291Z,14.60
2018-03-31T02:59:11.289Z,12.90
2018-03-31T03:00:11.305Z,13.90
2018-03-31T03:01:11.322Z,14.10
2018-03-31T03:02:11.328Z,14.00
2018-03-31T03:03:11.348Z,12.90
2018-03-31T03:04:11.357Z,13.60
2018-03-31T03:05:11.368Z,13.10
2018-03-31T03:06:11.394Z,13.60
2018-03-31T03:07:11.396Z,13.70
2018-03-31T03:08:11.410Z,13.40
2018-03-31T03:09:11.428Z,13.10
2018-03-31T03:10:11.438Z,12.30
2018-03-31T03:11:11.449Z,13.30
2018-03-31T03:12:11.462Z,14.20
2018-03-31T03:13:11.477Z,12.60
2018-03-31T03:14:11.490Z,13.80
2018-03-31T03:15:11.507Z,13.90
2018-03-31T03:16:11.518Z,14.00
2018-03-31T03:17:11.529Z,13.20
2018-03-31T03:18:11.543Z,13.90
2018-03-31T03:19:11.557Z,13.70
2018-03-31T03:20:11.569Z,14.10
2018-03-31T03:21:11.584Z,14.20
2018-03-31T03:22:11.599Z,14.50
2018-03-31T03:23:11.609Z,13.90
2018-03-31T03:24:11.623Z,14.00
2018-03-31T03:25:11.636Z,14.40
2018-03-31T03:26:11.651Z,14.20
2018-03-31T03:27:11.663Z,14.90
2018-03-31T03:28:11.678Z,14.60
2018-03-31T03:29:11.691Z,15.60
2018-03-31T03:30:11.708Z,14.70
2018-03-31T03:31:11.717Z,14.20
2018-03-31T03:32:11.731Z,14.90
2018-03-31T03:33:11.745Z,14.80
2018-03-31T03:34:11.758Z,14.00
2018-03-31T03:35:11.773Z,14.40
2018-03-31T03:36:11.782Z,15.10
2018-03-31T03:37:11.797Z,14.40
2018-03-31T03:38:11.810Z,14.50
2018-03-31T03:39:11.823Z,14.90
2018-03-31T03:40:11.840Z,13.80
2018-03-31T03:41:11.850Z,14.40
2018-03-31T03:42:11.864Z,14.50
2018-03-31T03:43:11.888Z,13.40
2018-03-31T03:44:11.892Z,14.30
2018-03-31T03:45:11.904Z,14.50
2018-03-31T03:46:11.918Z,14.40
2018-03-31T03:47:11.935Z,14.20
2018-03-31T03:48:11.948Z,14.40
2018-03-31T03:49:11.958Z,13.90
2018-03-31T03:50:11.971Z,14.50
2018-03-31T03:51:11.984Z,13.70
2018-03-31T03:52:11.997Z,14.20
2018-03-31T03:53:12.013Z,15.00
2018-03-31T03:54:12.024Z,14.20
2018-03-31T03:55:12.038Z,14.50
2018-03-31T03:56:12.052Z,14.60
2018-03-31T03:57:12.071Z,14.60
2018-03-31T03:58:12.080Z,14.60
2018-03-31T03:59:12.092Z,14.10
2018-03-31T04:00:12.109Z,14.20
2018-03-31T04:01:12.118Z,14.60
2018-03-31T04:02:12.145Z,14.80
2018-03-31T04:03:12.147Z,15.10
2018-03-31T04:04:12.159Z,14.70
2018-03-31T04:05:12.173Z,15.30
2018-03-31T04:06:12.203Z,14.70
2018-03-31T04:07:12.199Z,14.80
2018-03-31T04:08:12.212Z,15.30
2018-03-31T04:09:12.226Z,15.90
2018-03-31T04:10:12.240Z,16.20
2018-03-31T04:11:12.253Z,16.40
2018-03-31T04:12:12.265Z,16.50
2018-03-31T04:13:12.283Z,16.40
2018-03-31T04:14:12.295Z,16.40
2018-03-31T04:15:12.306Z,16.00
2018-03-31T04:16:12.322Z,16.40
2018-03-31T04:17:12.340Z,18.20
2018-03-31T04:18:12.347Z,17.50
2018-03-31T04:19:12.360Z,17.90
2018-03-31T04:20:12.372Z,17.70
2018-03-31T04:21:12.387Z,17.80
2018-03-31T04:22:12.405Z,17.00
2018-03-31T04:23:12.412Z,17.80
2018-03-31T04:24:12.427Z,17.30
2018-03-31T04:25:12.442Z,17.70
2018-03-31T04:26:12.456Z,19.60
2018-03-31T04:27:12.465Z,19.00
2018-03-31T04:28:12.481Z,18.80
2018-03-31T04:29:12.499Z,18.30
2018-03-31T04:30:12.507Z,19.60
2018-03-31T04:31:12.518Z,18.70
2018-03-31T04:32:12.533Z,19.00
2018-03-31T04:33:12.547Z,19.10
2018-03-31T04:34:12.569Z,19.30
2018-03-31T04:35:12.571Z,19.10
2018-03-31T04:36:12.583Z,20.20
2018-03-31T04:37:12.599Z,20.30
2018-03-31T04:38:12.613Z,20.40
2018-03-31T04:39:12.626Z,19.60
2018-03-31T04:40:12.636Z,19.60
2018-03-31T04:41:12.651Z,19.70
2018-03-31T04:42:12.667Z,19.30
2018-03-31T04:43:12.678Z,20.20
2018-03-31T04:44:12.700Z,19.40
2018-03-31T04:45:12.705Z,19.80
2018-03-31T04:46:12.721Z,19.90
2018-03-31T04:47:12.737Z,20.50
2018-03-31T04:48:12.744Z,19.00
2018-03-31T04:49:12.760Z,19.90
2018-03-31T04:50:12.772Z,20.80
2018-03-31T04:51:12.783Z,20.20
2018-03-31T04:52:12.797Z,20.10
2018-03-31T04:53:12.808Z,20.00
2018-03-31T04:54:12.822Z,19.50
2018-03-31T04:55:12.893Z,20.00
2018-03-31T04:56:12.849Z,20.10
2018-03-31T04:57:12.867Z,19.70
2018-03-31T04:58:12.906Z,20.90
2018-03-31T04:59:12.888Z,19.60
2018-03-31T05:00:12.905Z,20.30
2018-03-31T05:01:12.921Z,20.50
2018-03-31T05:02:12.942Z,20.30
2018-03-31T05:03:12.944Z,21.10
2018-03-31T05:04:12.956Z,21.20
2018-03-31T05:05:12.969Z,21.20
2018-03-31T05:06:12.981Z,21.20
2018-03-31T05:07:13.005Z,20.60
2018-03-31T05:08:13.008Z,19.70
2018-03-31T05:09:13.019Z,19.30
2018-03-31T05:10:13.032Z,20.30
2018-03-31T05:11:13.045Z,19.40
2018-03-31T05:12:13.058Z,20.00
2018-03-31T05:13:13.073Z,19.90
2018-03-31T05:14:13.087Z,20.50
2018-03-31T05:15:13.099Z,20.90
2018-03-31T05:16:13.111Z,20.20
2018-03-31T05:17:13.124Z,20.90
2018-03-31T05:18:13.139Z,19.80
2018-03-31T05:19:13.148Z,21.30
2018-03-31T05:20:13.186Z,21.10
2018-03-31T05:21:13.177Z,21.80
2018-03-31T05:22:13.225Z,22.50
2018-03-31T05:23:13.245Z,22.60
2018-03-31T05:24:13.215Z,20.70
2018-03-31T05:25:13.227Z,22.50
2018-03-31T05:26:13.241Z,23.00
2018-03-31T05:27:13.252Z,22.90
2018-03-31T05:28:13.266Z,22.30
2018-03-31T05:29:13.284Z,21.90
2018-03-31T05:30:13.299Z,21.10
2018-03-31T05:31:13.306Z,21.40
2018-03-31T05:32:13.321Z,21.60
2018-03-31T05:33:13.331Z,21.10
2018-03-31T05:34:13.350Z,21.30
2018-03-31T05:35:13.361Z,21.70
2018-03-31T05:36:13.370Z,22.90
2018-03-31T05:37:13.383Z,22.00
2018-03-31T05:38:13.409Z,21.80
2018-03-31T05:39:13.406Z,22.00
2018-03-31T05:40:13.424Z,22.30
2018-03-31T05:41:13.436Z,21.90
2018-03-31T05:42:13.503Z,20.70
2018-03-31T05:43:13.468Z,21.50
2018-03-31T05:44:13.473Z,22.20
2018-03-31T05:45:13.488Z,21.80
2018-03-31T05:46:13.501Z,22.50
2018-03-31T05:47:13.513Z,22.80
2018-03-31T05:48:13.525Z,22.50
2018-03-31T05:49:13.538Z,23.10
2018-03-31T05:50:13.556Z,23.90
2018-03-31T05:51:13.570Z,23.90
2018-03-31T05:52:13.578Z,23.20
2018-03-31T05:53:13.596Z,23.30
2018-03-31T05:54:13.611Z,23.90
2018-03-31T05:55:13.617Z,23.90
2018-03-31T05:56:13.631Z,23.20
2018-03-31T05:57:13.646Z,24.20
2018-03-31T05:58:13.655Z,23.70
2018-03-31T05:59:13.674Z,23.10
2018-03-31T06:00:13.682Z,22.50
2018-03-31T06:01:13.704Z,23.50
2018-03-31T06:02:13.707Z,22.90
2018-03-31T06:03:13.720Z,22.40
2018-03-31T06:04:13.740Z,23.00
2018-03-31T06:05:13.752Z,24.70
2018-03-31T06:06:13.760Z,21.80
2018-03-31T06:07:13.773Z,23.50
2018-03-31T06:08:13.786Z,23.70
2018-03-31T06:09:13.800Z,22.90
2018-03-31T06:10:13.817Z,23.80
2018-03-31T06:11:13.827Z,23.40
2018-03-31T06:12:13.840Z,23.20
2018-03-31T06:13:13.856Z,23.90
2018-03-31T06:14:13.865Z,22.60
2018-03-31T06:15:13.903Z,23.80
2018-03-31T06:16:13.893Z,22.60
2018-03-31T06:17:13.908Z,23.20
2018-03-31T06:18:13.919Z,22.40
2018-03-31T06:19:13.932Z,23.60
2018-03-31T06:20:13.945Z,23.50
2018-03-31T06:21:13.957Z,23.80
2018-03-31T06:22:13.971Z,23.50
2018-03-31T06:23:13.984Z,22.40
2018-03-31T06:24:14.002Z,21.90
2018-03-31T06:25:14.021Z,22.20
2018-03-31T06:26:14.024Z,22.30
2018-03-31T06:27:14.040Z,22.20
2018-03-31T06:28:14.053Z,24.10
2018-03-31T06:29:14.067Z,22.80
2018-03-31T06:30:14.081Z,22.60
2018-03-31T06:31:14.100Z,23.50
2018-03-31T06:32:14.110Z,22.80
2018-03-31T06:33:14.118Z,21.70
2018-03-31T06:34:14.132Z,23.00
2018-03-31T06:35:14.151Z,23.40
2018-03-31T06:36:14.156Z,22.30
2018-03-31T06:37:14.172Z,22.90
2018-03-31T06:38:14.183Z,23.20
2018-03-31T06:39:14.202Z,23.90
2018-03-31T06:40:14.217Z,23.00
2018-03-31T06:41:14.232Z,21.20
2018-03-31T06:42:14.256Z,21.10
2018-03-31T06:43:14.259Z,21.80
2018-03-31T06:44:14.329Z,21.20
2018-03-31T06:45:14.280Z,21.30
2018-03-31T06:46:14.293Z,23.10
2018-03-31T06:47:14.304Z,22.70
2018-03-31T06:48:14.322Z,22.20
2018-03-31T06:49:14.334Z,21.90
2018-03-31T06:50:14.347Z,22.50
2018-03-31T06:51:14.360Z,21.80
2018-03-31T06:52:14.385Z,22.20
2018-03-31T06:53:14.398Z,21.60
2018-03-31T06:54:14.401Z,21.60
2018-03-31T06:55:14.414Z,22.70
2018-03-31T06:56:14.429Z,22.50
2018-03-31T06:57:14.439Z,22.40
2018-03-31T06:58:14.557Z,22.20
2018-03-31T06:59:14.470Z,21.10
2018-03-31T07:00:14.483Z,22.80
2018-03-31T07:01:14.498Z,21.90
2018-03-31T07:02:14.516Z,21.80
2018-03-31T07:03:14.532Z,21.70
2018-03-31T07:04:14.537Z,21.30
2018-03-31T07:05:14.554Z,22.70
2018-03-31T07:06:14.564Z,22.90
2018-03-31T07:07:14.578Z,22.10
2018-03-31T07:08:14.589Z,21.80
2018-03-31T07:09:14.614Z,21.90
2018-03-31T07:10:14.633Z,21.30
2018-03-31T07:11:14.630Z,21.40
2018-03-31T07:12:14.645Z,21.30
2018-03-31T07:13:14.660Z,21.00
2018-03-31T07:14:14.673Z,20.70
2018-03-31T07:15:14.686Z,19.90
2018-03-31T07:16:14.699Z,20.20
2018-03-31T07:17:14.715Z,21.50
2018-03-31T07:18:14.736Z,20.80
2018-03-31T07:19:14.751Z,21.20
2018-03-31T07:20:14.759Z,19.70
2018-03-31T07:21:14.767Z,20.40
2018-03-31T07:22:14.840Z,19.80
2018-03-31T07:23:14.801Z,18.70
2018-03-31T07:24:14.823Z,20.00
2018-03-31T07:25:14.824Z,19.40
2018-03-31T07:26:14.845Z,19.80
2018-03-31T07:27:14.857Z,18.70
2018-03-31T07:28:14.865Z,18.80
2018-03-31T07:29:14.883Z,18.80
2018-03-31T07:30:14.894Z,19.00
2018-03-31T07:31:14.909Z,18.70
2018-03-31T07:32:14.983Z,19.20
2018-03-31T07:33:14.931Z,18.60
2018-03-31T07:34:14.951Z,18.00
2018-03-31T07:35:14.961Z,18.40
2018-03-31T07:36:15.042Z,18.40
2018-03-31T07:37:14.999Z,17.60
2018-03-31T07:38:15.002Z,16.90
2018-03-31T07:39:15.016Z,16.90
2018-03-31T07:40:15.031Z,16.50
2018-03-31T07:41:15.048Z,16.90
2018-03-31T07:42:15.066Z,17.10
2018-03-31T07:43:15.073Z,17.50
2018-03-31T07:44:15.085Z,16.00
2018-03-31T07:45:15.099Z,15.30
2018-03-31T07:46:15.111Z,16.30
2018-03-31T07:47:15.125Z,16.20
2018-03-31T07:48:15.144Z,15.90
2018-03-31T07:49:15.155Z,15.80
2018-03-31T07:50:15.168Z,14.70
2018-03-31T07:51:15.193Z,15.10
2018-03-31T07:52:15.205Z,15.40
2018-03-31T07:53:15.213Z,15.80
2018-03-31T07:54:15.225Z,16.30
2018-03-31T07:55:15.248Z,16.70
2018-03-31T07:56:15.253Z,17.30
2018-03-31T07:57:15.271Z,18.50
2018-03-31T07:58:15.297Z,17.90
2018-03-31T07:59:15.296Z,17.80
2018-03-31T08:00:15.310Z,17.90
2018-03-31T08:01:15.338Z,19.20
2018-03-31T08:02:15.344Z,19.80
2018-03-31T08:03:15.358Z,20.10
2018-03-31T08:04:15.367Z,19.30
2018-03-31T08:05:15.380Z,19.70
2018-03-31T08:06:15.395Z,19.40
2018-03-31T08:07:15.408Z,19.90
2018-03-31T08:08:15.423Z,20.50
2018-03-31T08:09:15.440Z,20.40
2018-03-31T08:10:15.453Z,19.30
2018-03-31T08:11:15.469Z,19.80
2018-03-31T08:12:15.481Z,20.30
2018-03-31T08:13:15.493Z,19.60
2018-03-31T08:14:15.507Z,19.80
2018-03-31T08:15:15.525Z,21.10
2018-03-31T08:16:15.544Z,20.40
2018-03-31T08:17:15.559Z,18.40
2018-03-31T08:18:15.569Z,20.30
2018-03-31T08:19:15.580Z,20.70
2018-03-31T08:20:15.595Z,20.00
2018-03-31T08:21:15.613Z,20.20
2018-03-31T08:22:15.623Z,19.20
2018-03-31T08:23:15.638Z,19.10
2018-03-31T08:24:15.678Z,18.70
2018-03-31T08:25:15.673Z,18.80
2018-03-31T08:26:15.680Z,19.50
2018-03-31T08:27:15.700Z,17.90
2018-03-31T08:28:15.711Z,15.90
2018-03-31T08:29:15.724Z,16.70
2018-03-31T08:30:15.791Z,15.80
2018-03-31T08:31:15.751Z,15.00
2018-03-31T08:32:15.765Z,14.50
2018-03-31T08:33:15.781Z,13.60
2018-03-31T08:34:15.799Z,9.10
2018-03-31T08:35:15.810Z,7.80
2018-03-31T08:36:15.884Z,7.50
2018-03-31T08:37:15.841Z,7.80
2018-03-31T08:38:15.956Z,7.90
2018-03-31T08:39:15.872Z,7.80
2018-03-31T08:40:15.882Z,7.80
2018-03-31T08:41:15.903Z,8.10
2018-03-31T08:42:15.935Z,8.20
2018-03-31T08:43:15.925Z,8.50
2018-03-31T08:44:15.949Z,8.70
2018-03-31T08:45:15.959Z,8.60
2018-03-31T08:47:16.069Z,9.00
2018-03-31T08:49:16.477Z,7.70
2018-03-31T08:50:16.023Z,8.30
2018-03-31T08:51:16.036Z,8.00
2018-03-31T08:52:16.053Z,8.20
2018-03-31T08:53:16.973Z,8.20
2018-03-31T08:54:16.296Z,8.60
2018-03-31T08:55:16.102Z,8.70
2018-03-31T08:56:16.473Z,8.40
2018-03-31T08:57:16.125Z,8.50
2018-03-31T08:58:16.347Z,8.30
2018-03-31T08:59:16.160Z,8.50
2018-03-31T09:00:16.169Z,7.80
2018-03-31T09:01:16.185Z,7.70
2018-03-31T09:02:16.198Z,8.40
2018-03-31T09:03:16.277Z,7.80
2018-03-31T09:04:16.237Z,7.60
2018-03-31T09:05:16.262Z,7.60
2018-03-31T09:06:16.258Z,7.10
2018-03-31T09:07:16.307Z,7.40
2018-03-31T09:08:16.285Z,7.10
2018-03-31T09:09:16.347Z,7.20
2018-03-31T09:10:16.315Z,7.60
2018-03-31T09:11:16.333Z,7.40
2018-03-31T09:12:16.362Z,6.80
2018-03-31T09:13:16.359Z,6.60
2018-03-31T09:14:16.379Z,7.00
2018-03-31T09:15:16.401Z,6.80
2018-03-31T09:16:16.548Z,6.40
2018-03-31T09:17:16.416Z,4.60
2018-03-31T09:19:16.453Z,4.90
2018-03-31T09:20:16.465Z,4.60
2018-03-31T09:21:16.477Z,4.60
2018-03-31T09:22:16.491Z,4.20
2018-03-31T09:23:16.517Z,4.40
2018-03-31T09:24:16.528Z,4.20
2018-03-31T09:25:16.538Z,3.90
2018-03-31T09:26:16.554Z,4.80
2018-03-31T09:27:16.566Z,4.40
2018-03-31T09:28:16.581Z,4.50
2018-03-31T09:29:16.596Z,4.40
2018-03-31T09:30:16.609Z,4.10
2018-03-31T09:31:16.637Z,4.40
2018-03-31T09:32:16.747Z,3.80
2018-03-31T09:33:16.657Z,4.10
2018-03-31T09:34:16.719Z,4.10
2018-03-31T09:35:16.684Z,3.90
2018-03-31T09:36:16.725Z,4.20
2018-03-31T09:37:16.715Z,4.90
2018-03-31T09:38:18.062Z,4.60
2018-03-31T09:39:16.788Z,4.60
2018-03-31T09:40:16.772Z,5.00
2018-03-31T09:41:16.774Z,5.30
2018-03-31T09:42:16.789Z,5.30
2018-03-31T09:43:16.805Z,4.60
2018-03-31T09:44:16.818Z,3.70
2018-03-31T09:45:16.834Z,2.90
2018-03-31T09:46:16.846Z,2.70
2018-03-31T09:47:16.861Z,2.90
2018-03-31T09:48:16.882Z,4.10
2018-03-31T09:49:16.897Z,3.30
2018-03-31T09:50:16.907Z,3.10
2018-03-31T09:51:16.926Z,3.60
2018-03-31T09:52:16.985Z,3.40
2018-03-31T09:53:16.981Z,3.60
2018-03-31T09:54:16.973Z,3.50
2018-03-31T09:55:16.995Z,3.60
2018-03-31T09:56:17.004Z,3.50
2018-03-31T09:57:17.011Z,3.70
2018-03-31T09:58:17.026Z,4.00
2018-03-31T09:59:17.054Z,3.60
2018-03-31T10:00:17.058Z,3.70
2018-03-31T10:01:17.083Z,3.80
2018-03-31T10:02:17.103Z,3.90
2018-03-31T10:03:17.108Z,3.20
2018-03-31T10:04:17.153Z,3.30
2018-03-31T10:05:17.145Z,3.00
2018-03-31T10:06:17.148Z,3.50
2018-03-31T10:07:17.168Z,3.20
2018-03-31T10:08:17.182Z,3.20
2018-03-31T10:09:17.193Z,3.40
2018-03-31T10:10:17.206Z,3.50
2018-03-31T10:11:18.077Z,3.90
2018-03-31T10:12:18.143Z,3.80
2018-03-31T10:13:17.250Z,3.60
2018-03-31T10:14:17.270Z,3.30
2018-03-31T10:15:17.285Z,3.70
2018-03-31T10:16:17.295Z,3.90
2018-03-31T10:17:17.313Z,3.80
2018-03-31T10:18:17.329Z,3.40
2018-03-31T10:19:17.347Z,3.70
2018-03-31T10:20:17.612Z,3.80
2018-03-31T10:21:17.376Z,3.60
2018-03-31T10:22:17.389Z,3.60
2018-03-31T10:23:17.405Z,3.70
2018-03-31T10:24:17.439Z,3.50
2018-03-31T10:25:17.437Z,3.60
2018-03-31T10:26:17.449Z,3.60
2018-03-31T10:27:17.470Z,3.90
2018-03-31T10:28:17.482Z,4.00
2018-03-31T10:29:17.542Z,3.90
2018-03-31T10:30:17.515Z,3.50
2018-03-31T10:31:17.525Z,4.30
2018-03-31T10:32:17.543Z,4.40
2018-03-31T10:33:17.561Z,4.30
2018-03-31T10:34:17.572Z,4.50
2018-03-31T10:35:17.605Z,4.10
2018-03-31T10:36:17.606Z,4.30
2018-03-31T10:37:17.641Z,4.10
2018-03-31T10:38:17.636Z,3.40
2018-03-31T10:39:17.647Z,3.90
2018-03-31T10:40:17.667Z,3.40
2018-03-31T10:41:17.880Z,4.00
2018-03-31T10:42:17.702Z,4.00
2018-03-31T10:43:17.725Z,4.10
2018-03-31T10:44:17.734Z,4.00
2018-03-31T10:45:17.743Z,3.80
2018-03-31T10:46:17.755Z,3.80
2018-03-31T10:47:17.770Z,3.90
2018-03-31T10:48:17.788Z,3.50
2018-03-31T10:49:17.812Z,3.50
2018-03-31T10:50:17.974Z,3.80
2018-03-31T10:51:17.837Z,3.50
2018-03-31T10:52:18.130Z,4.00
2018-03-31T10:53:17.924Z,3.60
2018-03-31T10:54:17.877Z,4.10
2018-03-31T10:55:17.906Z,3.80
2018-03-31T10:56:17.913Z,4.10
2018-03-31T10:57:17.945Z,3.70
2018-03-31T10:58:17.943Z,4.20
2018-03-31T10:59:18.001Z,4.00
2018-03-31T11:00:18.018Z,3.80
2018-03-31T11:01:17.987Z,3.90
2018-03-31T11:02:18.002Z,3.70
2018-03-31T11:03:18.032Z,4.10
2018-03-31T11:04:18.040Z,3.60
2018-03-31T11:05:18.046Z,3.70
2018-03-31T11:06:18.064Z,3.70
2018-03-31T11:07:18.079Z,3.60
2018-03-31T11:08:18.105Z,3.50
2018-03-31T11:09:18.113Z,3.60
2018-03-31T11:10:18.124Z,3.70
2018-03-31T11:11:18.145Z,3.90
2018-03-31T11:12:18.155Z,3.70
2018-03-31T11:13:18.169Z,3.90
2018-03-31T11:14:18.192Z,3.90
2018-03-31T11:15:18.205Z,4.00
2018-03-31T11:16:18.214Z,3.50
2018-03-31T11:17:18.236Z,3.70
2018-03-31T11:18:18.249Z,3.80
2018-03-31T11:19:18.276Z,3.90
2018-03-31T11:20:18.277Z,3.70
2018-03-31T11:21:18.294Z,3.90
2018-03-31T11:22:18.316Z,3.70
2018-03-31T11:23:18.352Z,3.70
2018-03-31T11:24:18.347Z,3.60
2018-03-31T11:25:18.363Z,3.80
2018-03-31T11:26:18.371Z,3.60
2018-03-31T11:27:18.401Z,3.40
2018-03-31T11:28:18.404Z,3.40
2018-03-31T11:29:18.417Z,4.00
2018-03-31T11:30:18.429Z,3.90
2018-03-31T11:31:18.449Z,3.40
2018-03-31T11:32:18.461Z,3.80
2018-03-31T11:33:18.479Z,3.80
2018-03-31T11:34:18.495Z,4.00
2018-03-31T11:35:18.520Z,3.60
2018-03-31T11:36:18.524Z,3.60
2018-03-31T11:37:18.540Z,3.60
2018-03-31T11:38:18.557Z,3.70
2018-03-31T11:39:18.586Z,4.10
2018-03-31T11:40:18.589Z,4.10
2018-03-31T11:41:18.636Z,3.80
2018-03-31T11:42:19.042Z,3.80
2018-03-31T11:43:18.637Z,3.60
2018-03-31T11:44:18.654Z,4.00
2018-03-31T11:45:18.671Z,4.20
2018-03-31T11:46:18.687Z,4.20
2018-03-31T11:47:18.698Z,4.50
2018-03-31T11:48:18.713Z,4.30
2018-03-31T11:49:18.729Z,4.40
2018-03-31T11:50:18.753Z,4.40
2018-03-31T11:51:18.762Z,4.30
2018-03-31T11:52:18.877Z,4.00
2018-03-31T11:53:18.797Z,4.10
2018-03-31T11:54:18.881Z,3.90
2018-03-31T11:55:18.843Z,3.60
2018-03-31T11:56:18.842Z,3.90
2018-03-31T11:57:18.859Z,3.50
2018-03-31T11:58:18.872Z,4.30
2018-03-31T11:59:18.889Z,3.90
2018-03-31T12:00:18.905Z,3.80
2018-03-31T12:01:18.924Z,4.10
2018-03-31T12:02:18.944Z,3.80
2018-03-31T12:03:18.953Z,3.80
2018-03-31T12:04:18.974Z,3.90
2018-03-31T12:05:18.992Z,3.60
2018-03-31T12:06:19.001Z,3.70
2018-03-31T12:07:19.015Z,4.30
2018-03-31T12:08:19.030Z,3.80
2018-03-31T12:09:19.046Z,3.80
2018-03-31T12:10:19.066Z,4.20
2018-03-31T12:11:19.078Z,3.70
2018-03-31T12:12:19.096Z,3.70
2018-03-31T12:13:19.135Z,4.30
2018-03-31T12:14:19.130Z,4.50
2018-03-31T12:15:19.143Z,4.00
2018-03-31T12:16:19.161Z,3.80
2018-03-31T12:17:19.177Z,4.10
2018-03-31T12:18:19.202Z,3.90
2018-03-31T12:19:19.207Z,3.90
2018-03-31T12:20:19.227Z,4.20
2018-03-31T12:21:19.239Z,3.70
2018-03-31T12:22:19.264Z,3.40
2018-03-31T12:23:19.337Z,3.70
2018-03-31T12:24:19.295Z,3.10
2018-03-31T12:25:19.316Z,3.30
2018-03-31T12:26:19.331Z,3.40
2018-03-31T12:27:19.339Z,3.70
2018-03-31T12:28:19.352Z,3.60
2018-03-31T12:29:19.365Z,3.50
2018-03-31T12:30:19.388Z,3.80
2018-03-31T12:31:19.416Z,4.20
2018-03-31T12:32:19.435Z,4.10
2018-03-31T12:33:19.434Z,4.00
2018-03-31T12:34:19.448Z,4.10
2018-03-31T12:35:19.467Z,4.40
2018-03-31T12:36:19.488Z,4.00
2018-03-31T12:37:19.516Z,4.20
2018-03-31T12:38:19.514Z,4.70
2018-03-31T12:39:19.530Z,4.30
2018-03-31T12:40:19.545Z,4.20
2018-03-31T12:41:19.575Z,4.40
2018-03-31T12:42:19.586Z,4.40
2018-03-31T12:43:19.594Z,4.40
2018-03-31T12:44:19.609Z,4.60
2018-03-31T12:45:19.631Z,4.40
2018-03-31T12:46:19.641Z,4.30
2018-03-31T12:47:19.666Z,4.40
2018-03-31T12:48:19.715Z,4.30
2018-03-31T12:49:19.693Z,4.20
2018-03-31T12:50:19.710Z,4.40
2018-03-31T12:51:19.728Z,4.30
2018-03-31T12:52:19.741Z,4.50
2018-03-31T12:53:19.758Z,4.70
2018-03-31T12:54:19.771Z,5.00
2018-03-31T12:55:19.787Z,4.10
2018-03-31T12:56:19.808Z,4.50
2018-03-31T12:57:19.822Z,4.30
2018-03-31T12:58:19.837Z,4.50
2018-03-31T12:59:19.854Z,4.50
2018-03-31T13:00:19.870Z,4.70
2018-03-31T13:01:19.886Z,4.60
2018-03-31T13:02:19.907Z,4.60
2018-03-31T13:03:19.920Z,4.50
2018-03-31T13:04:19.938Z,4.90
2018-03-31T13:05:19.952Z,4.40